Time;durP1;ratioP1;P1;durP2;ratioP2;P2;SDS_P1;SDS_P2;PMS_P1;PMS_P2;Temp;Humidity;BMP_temperature;BMP_pressure;BME280_temperature;BME280_humidity;BME280_pressure;Samples;Min_cycle;Max_cycle;Signal;HPM_P1;HPM_P2
2023/08/11 00:02:36;;;;;;;7.07;3.27;;;14.80;99.90;;;;;;5057581;28;20523;-70
2023/08/11 00:05:21;;;;;;;5.60;3.80;;;14.80;99.90;;;;;;5061973;28;20417;-69
2023/08/11 00:08:08;;;;;;;6.03;3.93;;;14.80;99.90;;;;;;5054115;28;20505;-71
2023/08/11 00:10:54;;;;;;;7.20;3.57;;;14.70;99.90;;;;;;5048695;28;20708;-71
2023/08/11 00:13:40;;;;;;;7.47;3.70;;;14.80;99.90;;;;;;5057352;28;20477;-70
2023/08/11 00:16:25;;;;;;;8.53;3.63;;;14.80;99.90;;;;;;5061549;28;20944;-71
2023/08/11 00:19:11;;;;;;;10.03;4.13;;;14.80;99.90;;;;;;5063814;28;20445;-70
2023/08/11 00:21:57;;;;;;;5.83;3.43;;;15.00;99.90;;;;;;5059164;28;20447;-70
2023/08/11 00:24:42;;;;;;;7.93;3.37;;;15.00;99.90;;;;;;5057302;28;20463;-70
2023/08/11 00:27:29;;;;;;;5.30;3.93;;;15.10;99.90;;;;;;5054323;28;20459;-71
2023/08/11 00:30:15;;;;;;;4.10;3.13;;;15.20;99.90;;;;;;5063493;28;20540;-70
2023/08/11 00:33:00;;;;;;;6.73;4.03;;;15.20;99.90;;;;;;5058512;28;20984;-70
2023/08/11 00:35:46;;;;;;;5.10;3.37;;;15.30;99.90;;;;;;5058523;28;20417;-70
2023/08/11 00:38:38;;;;;;;6.87;3.67;;;15.30;99.90;;;;;;5058648;28;20439;-70
2023/08/11 00:41:23;;;;;;;5.50;3.57;;;15.10;99.90;;;;;;5056588;28;20480;-70
2023/08/11 00:44:10;;;;;;;5.50;3.97;;;15.00;99.90;;;;;;5060062;28;20522;-70
2023/08/11 00:46:56;;;;;;;6.33;3.37;;;14.90;99.90;;;;;;5058357;28;20549;-69
2023/08/11 00:49:43;;;;;;;20.63;4.97;;;14.80;99.90;;;;;;5053048;28;20421;-69
2023/08/11 00:52:28;;;;;;;7.70;3.70;;;14.80;99.90;;;;;;5057776;28;20417;-69
2023/08/11 00:55:14;;;;;;;6.37;3.60;;;14.80;99.90;;;;;;5057267;28;20801;-70
2023/08/11 00:58:00;;;;;;;6.30;3.43;;;14.80;99.90;;;;;;5054745;28;20454;-69
2023/08/11 01:00:47;;;;;;;13.23;3.60;;;14.80;99.90;;;;;;5063552;28;20908;-70
2023/08/11 01:03:32;;;;;;;4.57;3.53;;;14.80;99.90;;;;;;5055390;28;20510;-69
2023/08/11 01:06:28;;;;;;;7.47;3.83;;;14.80;99.90;;;;;;5053204;28;20446;-70
2023/08/11 01:09:24;;;;;;;5.70;3.83;;;14.70;99.90;;;;;;5055168;28;21228;-70
2023/08/11 01:12:17;;;;;;;4.60;3.80;;;14.70;99.90;;;;;;5055327;28;20417;-70
2023/08/11 01:15:11;;;;;;;8.57;3.90;;;14.60;99.90;;;;;;5054527;28;20474;-69
2023/08/11 01:17:59;;;;;;;5.20;3.80;;;14.60;99.90;;;;;;5052592;28;20449;-70
2023/08/11 01:20:45;;;;;;;4.40;3.17;;;14.60;99.90;;;;;;5059501;28;20476;-69
2023/08/11 01:23:31;;;;;;;6.23;3.50;;;14.60;99.90;;;;;;5058075;28;20448;-70
2023/08/11 01:26:17;;;;;;;5.70;3.70;;;14.50;99.90;;;;;;5058757;28;20980;-69
2023/08/11 01:29:03;;;;;;;10.83;4.50;;;14.50;99.90;;;;;;5056903;28;20561;-69
2023/08/11 01:31:48;;;;;;;5.33;3.63;;;14.40;99.90;;;;;;5058880;28;20501;-70
2023/08/11 01:34:34;;;;;;;7.70;3.37;;;14.40;99.90;;;;;;5060711;28;20516;-69
2023/08/11 01:37:19;;;;;;;5.37;3.80;;;14.40;99.90;;;;;;5060841;28;20462;-69
2023/08/11 01:40:10;;;;;;;4.90;3.60;;;14.40;99.90;;;;;;5057783;28;20511;-69
2023/08/11 01:42:59;;;;;;;9.53;4.10;;;14.30;99.90;;;;;;5061291;28;20601;-69
2023/08/11 01:45:45;;;;;;;5.93;3.70;;;14.30;99.90;;;;;;5059527;28;21004;-70
2023/08/11 01:48:31;;;;;;;5.33;3.60;;;14.40;99.90;;;;;;5061494;28;20460;-69
2023/08/11 01:51:17;;;;;;;7.13;4.10;;;14.60;99.90;;;;;;5057726;28;20421;-70
2023/08/11 01:54:02;;;;;;;4.07;3.17;;;14.70;99.90;;;;;;5061052;28;20453;-69
2023/08/11 01:56:49;;;;;;;4.50;3.40;;;14.70;99.90;;;;;;5063168;28;20519;-69
2023/08/11 01:59:34;;;;;;;6.20;3.60;;;14.60;99.90;;;;;;5061149;28;20906;-69
2023/08/11 02:02:20;;;;;;;4.57;3.07;;;14.60;99.90;;;;;;5056503;28;20472;-69
2023/08/11 02:05:07;;;;;;;6.80;3.03;;;14.60;99.90;;;;;;5058921;28;20441;-69
2023/08/11 02:07:53;;;;;;;9.23;3.83;;;14.60;99.90;;;;;;5059084;28;21011;-69
2023/08/11 02:10:38;;;;;;;4.80;3.10;;;14.70;99.90;;;;;;5059873;28;20436;-69
2023/08/11 02:13:25;;;;;;;4.50;3.40;;;14.70;99.90;;;;;;5063393;28;20447;-69
2023/08/11 02:16:10;;;;;;;6.30;3.67;;;14.70;99.90;;;;;;5060565;28;20778;-69
2023/08/11 02:18:56;;;;;;;10.00;3.97;;;14.60;99.90;;;;;;5068573;28;20587;-70
2023/08/11 02:21:42;;;;;;;6.53;3.30;;;14.50;99.90;;;;;;5074671;28;20421;-69
2023/08/11 02:24:27;;;;;;;10.60;3.67;;;14.50;99.90;;;;;;5064037;28;21007;-70
2023/08/11 02:27:13;;;;;;;4.60;3.17;;;14.30;99.90;;;;;;5068159;28;20458;-69
2023/08/11 02:29:59;;;;;;;7.70;4.20;;;14.30;99.90;;;;;;5067397;28;20458;-69
2023/08/11 02:32:46;;;;;;;7.33;3.10;;;14.30;99.90;;;;;;5066722;28;20417;-70
2023/08/11 02:35:31;;;;;;;11.70;4.10;;;14.40;99.90;;;;;;5054569;28;20505;-69
2023/08/11 02:38:17;;;;;;;9.93;3.77;;;14.40;99.90;;;;;;5065226;28;20436;-70
2023/08/11 02:41:03;;;;;;;5.93;3.67;;;14.40;99.90;;;;;;5062515;28;20939;-71
2023/08/11 02:43:48;;;;;;;5.63;3.80;;;14.40;99.90;;;;;;5069283;28;20412;-71
2023/08/11 02:46:35;;;;;;;12.37;4.20;;;14.40;99.90;;;;;;5062595;28;20644;-70
2023/08/11 02:49:21;;;;;;;8.17;3.73;;;14.30;99.90;;;;;;5062241;28;20425;-70
2023/08/11 02:52:06;;;;;;;8.47;3.57;;;14.20;99.90;;;;;;5058370;28;20438;-70
2023/08/11 02:54:52;;;;;;;7.70;3.43;;;14.20;99.90;;;;;;5055505;28;20497;-69
2023/08/11 02:57:37;;;;;;;6.10;3.70;;;14.20;99.90;;;;;;5061640;28;20534;-70
2023/08/11 03:00:23;;;;;;;4.93;3.50;;;14.20;99.90;;;;;;5055047;28;20500;-69
2023/08/11 03:03:11;;;;;;;4.40;3.77;;;14.30;99.90;;;;;;5058808;28;20435;-70
2023/08/11 03:05:56;;;;;;;8.10;3.80;;;14.40;99.90;;;;;;5058528;28;20947;-69
2023/08/11 03:08:42;;;;;;;5.50;4.47;;;14.40;99.90;;;;;;5058508;28;20437;-70
2023/08/11 03:11:29;;;;;;;5.67;3.93;;;14.40;99.90;;;;;;5059262;28;20443;-70
2023/08/11 03:14:14;;;;;;;7.10;3.67;;;14.40;99.90;;;;;;5056800;28;21015;-69
2023/08/11 03:17:00;;;;;;;3.67;3.13;;;14.30;99.90;;;;;;5056296;28;21095;-69
2023/08/11 03:19:47;;;;;;;11.73;3.77;;;14.20;99.90;;;;;;5060950;28;20823;-70
2023/08/11 03:22:32;;;;;;;3.60;3.27;;;14.10;99.90;;;;;;5058942;28;20451;-69
2023/08/11 03:25:18;;;;;;;5.00;3.50;;;14.10;99.90;;;;;;5055592;28;20481;-70
2023/08/11 03:28:04;;;;;;;6.00;3.47;;;14.00;99.90;;;;;;5057482;28;20467;-70
2023/08/11 03:30:49;;;;;;;6.13;3.77;;;13.90;99.90;;;;;;5061480;28;20421;-70
2023/08/11 03:33:35;;;;;;;6.10;3.23;;;13.90;99.90;;;;;;5060662;28;20499;-70
2023/08/11 03:36:22;;;;;;;6.47;3.50;;;14.00;99.90;;;;;;5062864;28;20413;-70
2023/08/11 03:39:07;;;;;;;5.60;4.00;;;13.90;99.90;;;;;;5060299;28;20570;-70
2023/08/11 03:41:53;;;;;;;7.87;3.27;;;13.90;99.90;;;;;;5062116;28;20454;-69
2023/08/11 03:44:39;;;;;;;5.20;3.67;;;13.90;99.90;;;;;;5061877;28;20451;-69
2023/08/11 03:47:25;;;;;;;9.30;4.17;;;13.80;99.90;;;;;;5063875;28;20526;-70
2023/08/11 03:50:11;;;;;;;8.60;3.87;;;13.80;99.90;;;;;;5059963;28;20413;-70
2023/08/11 03:52:58;;;;;;;9.60;4.43;;;13.80;99.90;;;;;;5061083;28;20443;-70
2023/08/11 03:55:44;;;;;;;4.90;3.30;;;13.90;99.90;;;;;;5061802;28;20441;-70
2023/08/11 03:58:30;;;;;;;8.17;3.97;;;13.90;99.90;;;;;;5059581;28;20462;-69
2023/08/11 04:01:16;;;;;;;5.80;3.70;;;13.90;99.90;;;;;;5057815;28;20534;-69
2023/08/11 04:04:01;;;;;;;6.47;3.73;;;14.00;99.90;;;;;;5059312;28;20450;-70
2023/08/11 04:06:47;;;;;;;4.40;3.20;;;13.90;99.90;;;;;;5058461;28;20418;-70
2023/08/11 04:09:34;;;;;;;10.80;3.70;;;13.80;99.90;;;;;;5052824;28;20416;-69
2023/08/11 04:12:19;;;;;;;4.70;3.93;;;13.80;99.90;;;;;;5063840;28;20811;-70
2023/08/11 04:15:06;;;;;;;6.23;4.70;;;13.80;99.90;;;;;;5059870;28;20470;-70
2023/08/11 04:17:52;;;;;;;7.93;3.67;;;13.80;99.90;;;;;;5062988;28;20540;-69
2023/08/11 04:20:37;;;;;;;4.97;4.00;;;13.80;99.90;;;;;;5059555;28;20934;-70
2023/08/11 04:23:22;;;;;;;6.27;4.20;;;13.80;99.90;;;;;;5066655;28;20897;-69
2023/08/11 04:26:10;;;;;;;5.27;3.80;;;13.80;99.90;;;;;;5056515;28;20431;-70
2023/08/11 04:28:55;;;;;;;6.37;3.10;;;13.70;99.90;;;;;;5058869;28;20531;-70
2023/08/11 04:31:41;;;;;;;7.80;3.60;;;13.70;99.90;;;;;;5060148;28;20409;-70
2023/08/11 04:34:26;;;;;;;4.40;3.47;;;13.80;99.90;;;;;;5059922;28;20470;-69
2023/08/11 04:37:13;;;;;;;9.70;4.80;;;13.80;99.90;;;;;;5060170;28;20962;-71
2023/08/11 04:39:58;;;;;;;5.67;3.57;;;14.00;99.90;;;;;;5061088;28;20442;-70
2023/08/11 04:42:46;;;;;;;4.10;3.27;;;14.10;99.90;;;;;;5058474;28;20418;-70
2023/08/11 04:45:32;;;;;;;5.43;3.87;;;14.20;99.90;;;;;;5057194;28;20426;-69
2023/08/11 04:48:17;;;;;;;6.77;3.37;;;14.30;99.90;;;;;;5058510;28;20452;-69
2023/08/11 04:51:03;;;;;;;4.57;3.83;;;14.40;99.90;;;;;;5061218;28;20438;-70
2023/08/11 04:53:49;;;;;;;5.37;3.63;;;14.40;99.90;;;;;;5060652;28;20503;-70
2023/08/11 04:56:34;;;;;;;5.03;4.00;;;14.40;99.90;;;;;;5059012;28;20422;-70
2023/08/11 04:59:21;;;;;;;11.33;3.77;;;14.50;99.90;;;;;;5058353;28;20451;-70
2023/08/11 05:02:07;;;;;;;6.73;4.40;;;14.40;99.90;;;;;;5055505;28;20417;-70
2023/08/11 05:04:53;;;;;;;5.33;3.60;;;14.50;99.90;;;;;;5059320;28;20422;-69
2023/08/11 05:07:39;;;;;;;6.07;3.60;;;14.50;99.90;;;;;;5058774;28;20482;-70
2023/08/11 05:10:25;;;;;;;4.53;3.23;;;14.60;99.90;;;;;;5064062;22;20448;-89
2023/08/11 05:13:10;;;;;;;5.63;3.10;;;14.70;99.90;;;;;;5047150;28;20793;-89
2023/08/11 05:15:57;;;;;;;6.43;3.90;;;14.90;99.90;;;;;;5047904;28;20458;-90
2023/08/11 05:18:42;;;;;;;6.63;3.67;;;14.90;99.90;;;;;;5028317;28;20523;-90
2023/08/11 05:21:28;;;;;;;3.67;3.27;;;14.90;99.90;;;;;;5030644;28;20544;-89
2023/08/11 05:24:14;;;;;;;5.17;3.70;;;15.10;99.90;;;;;;5027634;28;20987;-90
2023/08/11 05:27:00;;;;;;;7.00;3.63;;;15.10;99.90;;;;;;5030448;28;20461;-89
2023/08/11 05:29:47;;;;;;;6.70;3.97;;;15.10;99.90;;;;;;5024911;28;20498;-86
2023/08/11 05:32:34;;;;;;;5.93;3.77;;;15.10;99.90;;;;;;5023863;28;20452;-86
2023/08/11 05:35:19;;;;;;;4.70;3.53;;;15.10;99.90;;;;;;5023821;28;21274;-88
2023/08/11 05:38:05;;;;;;;7.00;3.90;;;15.20;99.90;;;;;;5025679;28;20446;-88
2023/08/11 05:40:50;;;;;;;9.30;4.60;;;15.20;99.90;;;;;;5024816;28;20494;-88
2023/08/11 05:43:36;;;;;;;5.73;3.87;;;15.20;99.90;;;;;;5023983;28;20547;-86
2023/08/11 05:46:21;;;;;;;4.37;3.67;;;15.20;99.90;;;;;;5027360;28;20423;-88
2023/08/11 05:49:08;;;;;;;5.53;4.57;;;15.30;99.90;;;;;;5023483;28;20440;-89
2023/08/11 05:51:54;;;;;;;5.13;4.00;;;15.40;99.90;;;;;;5035502;28;20422;-89
2023/08/11 05:54:42;;;;;;;16.50;3.97;;;15.50;99.90;;;;;;5027183;28;20472;-88
2023/08/11 05:57:27;;;;;;;10.93;4.90;;;15.60;99.90;;;;;;5027896;28;20838;-89
2023/08/11 06:00:16;;;;;;;6.60;4.30;;;15.60;99.90;;;;;;5026236;28;20415;-89
2023/08/11 06:03:02;;;;;;;6.60;3.50;;;15.70;99.90;;;;;;5031702;28;20444;-89
2023/08/11 06:05:48;;;;;;;9.97;4.20;;;15.70;99.90;;;;;;5033144;28;20407;-90
2023/08/11 06:08:34;;;;;;;13.63;4.80;;;15.80;99.90;;;;;;5036101;28;20472;-89
2023/08/11 06:11:20;;;;;;;6.00;3.40;;;15.90;99.90;;;;;;5031002;28;20461;-89
2023/08/11 06:14:05;;;;;;;5.50;3.80;;;15.90;99.90;;;;;;5027900;28;20441;-89
2023/08/11 06:16:51;;;;;;;8.53;4.10;;;16.00;99.90;;;;;;5029657;28;20476;-90
2023/08/11 06:19:38;;;;;;;5.67;4.17;;;16.10;99.90;;;;;;5027352;28;20997;-89
2023/08/11 06:22:24;;;;;;;6.10;3.63;;;16.00;99.90;;;;;;5033248;28;20492;-91
2023/08/11 06:25:10;;;;;;;6.80;4.37;;;16.10;99.90;;;;;;5032427;28;20437;-89
2023/08/11 06:27:56;;;;;;;4.43;3.13;;;16.20;99.90;;;;;;5025478;28;20537;-89
2023/08/11 06:30:41;;;;;;;6.90;3.87;;;16.30;99.90;;;;;;5032902;28;20444;-90
2023/08/11 06:33:27;;;;;;;5.47;3.80;;;16.40;99.90;;;;;;5027398;28;20481;-89
2023/08/11 06:36:19;;;;;;;6.20;4.17;;;16.50;99.90;;;;;;5032524;28;20435;-89
2023/08/11 06:39:07;;;;;;;6.13;4.10;;;16.60;99.90;;;;;;5029570;28;20439;-90
2023/08/11 06:41:52;;;;;;;6.33;3.83;;;16.70;99.90;;;;;;5025928;28;20504;-89
2023/08/11 06:44:38;;;;;;;5.57;4.67;;;16.90;99.90;;;;;;5033713;28;20442;-89
2023/08/11 06:47:23;;;;;;;8.60;4.13;;;17.00;99.90;;;;;;5035992;28;20459;-89
2023/08/11 06:50:10;;;;;;;6.37;4.93;;;17.10;99.90;;;;;;5032679;28;20514;-90
2023/08/11 06:52:55;;;;;;;7.93;3.93;;;17.20;99.90;;;;;;5032248;28;20409;-89
2023/08/11 06:55:43;;;;;;;9.87;4.00;;;17.40;99.90;;;;;;5033413;28;20517;-90
2023/08/11 06:58:29;;;;;;;14.80;4.50;;;17.60;99.90;;;;;;5034814;28;20460;-89
2023/08/11 07:01:17;;;;;;;11.47;4.57;;;17.70;99.90;;;;;;5031229;28;20800;-89
2023/08/11 07:04:04;;;;;;;8.40;4.27;;;17.70;99.90;;;;;;5027443;28;21523;-91
2023/08/11 07:06:49;;;;;;;5.70;4.43;;;17.80;99.90;;;;;;5065971;22;20537;-76
2023/08/11 07:09:35;;;;;;;8.53;3.73;;;17.90;99.90;;;;;;5081094;28;20441;-75
2023/08/11 07:12:21;;;;;;;4.80;3.43;;;18.10;99.90;;;;;;5082443;28;20572;-75
2023/08/11 07:15:08;;;;;;;12.17;4.10;;;18.20;99.90;;;;;;5083330;28;21063;-74
2023/08/11 07:17:53;;;;;;;4.33;3.43;;;18.30;99.90;;;;;;5082078;28;20416;-76
2023/08/11 07:20:42;;;;;;;11.17;4.47;;;18.40;99.90;;;;;;5079484;28;20475;-75
2023/08/11 07:23:27;;;;;;;5.10;3.60;;;18.50;99.90;;;;;;5080445;28;20445;-75
2023/08/11 07:26:12;;;;;;;8.23;3.87;;;18.60;99.90;;;;;;5080680;28;20518;-78
2023/08/11 07:29:00;;;;;;;4.90;3.30;;;18.70;99.90;;;;;;5085137;28;20456;-77
2023/08/11 07:31:46;;;;;;;7.40;3.40;;;18.70;99.90;;;;;;5081492;28;20469;-77
2023/08/11 07:34:31;;;;;;;11.53;3.93;;;18.80;99.90;;;;;;5082234;28;20461;-74
2023/08/11 07:37:17;;;;;;;5.57;3.50;;;19.00;99.90;;;;;;5085876;28;20445;-77
2023/08/11 07:40:03;;;;;;;6.43;3.43;;;19.10;99.90;;;;;;5085053;28;20809;-75
2023/08/11 07:42:48;;;;;;;14.90;4.10;;;19.30;99.90;;;;;;5086116;28;20409;-75
2023/08/11 07:45:35;;;;;;;8.30;4.00;;;19.30;99.90;;;;;;5082630;28;20806;-73
2023/08/11 07:48:21;;;;;;;8.30;3.73;;;19.40;99.90;;;;;;5087322;28;20482;-74
2023/08/11 07:51:06;;;;;;;7.03;3.63;;;19.60;99.90;;;;;;5086069;28;20569;-74
2023/08/11 07:53:52;;;;;;;8.70;3.70;;;19.70;99.90;;;;;;5079898;28;20424;-75
2023/08/11 07:56:37;;;;;;;4.80;3.63;;;19.80;99.90;;;;;;5085049;28;20542;-76
2023/08/11 07:59:24;;;;;;;6.13;3.70;;;19.90;99.90;;;;;;5084627;28;20444;-77
2023/08/11 08:02:12;;;;;;;5.00;3.10;;;20.00;99.90;;;;;;5082996;28;20468;-78
2023/08/11 08:04:58;;;;;;;9.10;3.87;;;20.10;99.90;;;;;;5083695;28;20411;-74
2023/08/11 08:07:45;;;;;;;6.40;3.53;;;20.20;99.90;;;;;;5089410;28;20892;-77
2023/08/11 08:10:30;;;;;;;6.33;3.80;;;20.40;99.90;;;;;;5081346;28;20994;-76
2023/08/11 08:13:18;;;;;;;4.77;3.37;;;20.50;99.90;;;;;;5091725;28;20530;-77
2023/08/11 08:16:04;;;;;;;7.93;4.97;;;20.60;99.90;;;;;;5084026;28;20599;-77
2023/08/11 08:18:51;;;;;;;5.30;3.47;;;20.80;99.90;;;;;;5072572;28;20445;-76
2023/08/11 08:21:36;;;;;;;4.10;3.30;;;20.90;99.90;;;;;;5081490;28;20470;-77
2023/08/11 08:24:22;;;;;;;4.53;3.53;;;21.00;99.90;;;;;;5079801;28;20424;-77
2023/08/11 08:27:07;;;;;;;7.17;2.80;;;21.10;99.90;;;;;;5089217;28;20444;-77
2023/08/11 08:29:53;;;;;;;5.80;3.23;;;21.20;99.90;;;;;;5075184;28;20609;-77
2023/08/11 08:32:40;;;;;;;10.73;3.27;;;21.30;99.90;;;;;;5080468;28;20453;-76
2023/08/11 08:35:27;;;;;;;5.73;3.10;;;21.40;99.90;;;;;;5083869;28;20512;-77
2023/08/11 08:38:13;;;;;;;7.93;3.13;;;21.50;99.90;;;;;;5082748;28;20460;-77
2023/08/11 08:40:58;;;;;;;6.73;3.20;;;21.60;99.90;;;;;;5087008;28;20466;-77
2023/08/11 08:43:44;;;;;;;3.87;2.60;;;21.80;99.90;;;;;;5084670;28;20844;-77
2023/08/11 08:46:31;;;;;;;5.80;3.63;;;21.80;99.90;;;;;;5078053;28;20678;-77
2023/08/11 08:49:27;;;;;;;3.50;2.63;;;22.00;99.90;;;;;;5079400;28;20429;-78
2023/08/11 08:52:15;;;;;;;3.47;2.70;;;22.00;99.90;;;;;;5084178;28;20998;-78
2023/08/11 08:55:02;;;;;;;5.67;2.80;;;22.10;99.90;;;;;;5079068;28;20473;-75
2023/08/11 08:57:48;;;;;;;6.20;3.20;;;22.10;99.90;;;;;;5080558;28;20799;-75
2023/08/11 09:00:33;;;;;;;5.70;3.77;;;22.20;99.90;;;;;;5078618;28;20461;-75
2023/08/11 09:03:19;;;;;;;3.60;2.90;;;22.20;99.90;;;;;;5073891;28;20513;-76
2023/08/11 09:06:05;;;;;;;4.83;2.90;;;22.40;99.90;;;;;;5079512;28;20436;-75
2023/08/11 09:08:53;;;;;;;7.00;2.70;;;22.50;99.90;;;;;;5077561;28;20457;-75
2023/08/11 09:11:39;;;;;;;5.87;3.40;;;22.70;99.90;;;;;;5076649;28;20612;-75
2023/08/11 09:14:24;;;;;;;7.03;4.07;;;22.80;99.90;;;;;;5076197;28;20584;-76
2023/08/11 09:17:10;;;;;;;3.90;2.67;;;22.90;99.90;;;;;;5081531;28;20466;-76
2023/08/11 09:19:56;;;;;;;9.50;3.20;;;23.00;99.90;;;;;;5083019;28;20450;-73
2023/08/11 09:22:41;;;;;;;5.23;3.03;;;23.10;99.90;;;;;;5074956;28;20420;-73
2023/08/11 09:25:29;;;;;;;6.07;3.50;;;23.10;99.90;;;;;;5075703;28;21137;-75
2023/08/11 09:28:17;;;;;;;5.20;3.23;;;23.20;99.90;;;;;;5079964;28;20450;-74
2023/08/11 09:31:03;;;;;;;4.60;2.40;;;23.30;99.90;;;;;;5078731;28;21001;-76
2023/08/11 09:33:48;;;;;;;7.17;2.97;;;23.40;99.90;;;;;;5077275;28;20448;-75
2023/08/11 09:36:34;;;;;;;3.60;2.37;;;23.40;99.90;;;;;;5077032;28;20483;-75
2023/08/11 09:39:20;;;;;;;5.73;2.70;;;23.50;99.90;;;;;;5075916;28;20473;-75
2023/08/11 09:42:08;;;;;;;6.17;4.23;;;23.60;99.90;;;;;;5081650;28;20469;-75
2023/08/11 09:44:54;;;;;;;3.83;2.70;;;23.70;99.90;;;;;;5085466;28;20462;-74
2023/08/11 09:47:39;;;;;;;4.80;3.00;;;23.80;99.90;;;;;;5084561;28;21044;-74
2023/08/11 09:50:27;;;;;;;3.60;2.60;;;23.90;90.40;;;;;;5085554;28;20454;-74
2023/08/11 09:53:16;;;;;;;5.20;2.77;;;23.90;94.00;;;;;;5086371;28;20951;-75
2023/08/11 09:56:03;;;;;;;4.47;2.80;;;24.00;95.00;;;;;;5080806;28;20548;-75
2023/08/11 09:58:55;;;;;;;3.53;2.53;;;24.10;97.10;;;;;;5084257;28;20443;-75
2023/08/11 10:01:43;;;;;;;4.33;3.03;;;24.30;93.30;;;;;;5083844;28;20536;-75
2023/08/11 10:04:35;;;;;;;5.17;3.17;;;24.30;99.00;;;;;;5079031;28;20522;-74
2023/08/11 10:07:21;;;;;;;4.20;2.80;;;24.40;99.90;;;;;;5079660;28;20479;-75
2023/08/11 10:10:17;;;;;;;4.00;2.87;;;24.50;99.90;;;;;;5082188;28;20539;-75
2023/08/11 10:13:08;;;;;;;4.73;3.40;;;24.60;99.90;;;;;;5082641;28;20965;-75
2023/08/11 10:15:56;;;;;;;3.97;2.77;;;24.60;96.90;;;;;;5083036;28;20464;-76
2023/08/11 10:18:44;;;;;;;5.47;2.60;;;24.70;95.30;;;;;;5079996;28;20513;-76
2023/08/11 10:21:29;;;;;;;4.17;2.80;;;24.70;97.60;;;;;;5087329;28;20461;-75
2023/08/11 10:24:15;;;;;;;5.73;3.20;;;24.80;92.90;;;;;;5081004;28;20447;-75
2023/08/11 10:27:01;;;;;;;10.80;3.50;;;25.00;97.70;;;;;;5079514;28;20810;-74
2023/08/11 10:29:51;;;;;;;3.80;2.80;;;25.00;83.70;;;;;;5084364;28;20443;-75
2023/08/11 10:32:39;;;;;;;6.33;2.83;;;25.10;89.30;;;;;;5080941;28;20452;-75
2023/08/11 10:35:27;;;;;;;3.53;2.70;;;25.10;91.30;;;;;;5081198;28;20443;-74
2023/08/11 10:38:12;;;;;;;6.43;3.67;;;25.20;93.60;;;;;;5075864;28;20457;-76
2023/08/11 10:41:00;;;;;;;6.43;3.20;;;25.30;90.90;;;;;;5079412;28;20559;-77
2023/08/11 10:43:49;;;;;;;4.23;3.23;;;25.40;82.10;;;;;;5087077;28;20483;-76
2023/08/11 10:46:36;;;;;;;8.40;3.23;;;25.50;90.30;;;;;;5087517;28;20445;-77
2023/08/11 10:49:34;;;;;;;7.30;3.37;;;25.60;92.20;;;;;;5081934;28;20462;-76
2023/08/11 10:52:20;;;;;;;5.73;3.47;;;25.70;88.40;;;;;;5081708;28;21156;-77
2023/08/11 10:55:09;;;;;;;6.20;4.23;;;25.70;82.80;;;;;;5083104;28;23263;-77
2023/08/11 10:58:11;;;;;;;6.73;3.90;;;25.70;90.40;;;;;;5087282;28;20470;-77
2023/08/11 11:00:58;;;;;;;7.37;3.90;;;25.80;85.20;;;;;;5083702;28;20461;-75
2023/08/11 11:03:50;;;;;;;4.70;3.77;;;25.90;73.90;;;;;;5081210;28;20469;-77
2023/08/11 11:06:45;;;;;;;6.23;3.87;;;26.00;69.00;;;;;;5088535;28;20527;-77
2023/08/11 11:09:31;;;;;;;7.83;3.57;;;26.10;73.80;;;;;;5086812;28;20461;-77
2023/08/11 11:12:20;;;;;;;7.50;4.57;;;26.10;71.70;;;;;;5080566;28;20457;-75
2023/08/11 11:15:07;;;;;;;8.60;4.40;;;26.10;78.70;;;;;;5084712;28;20442;-75
2023/08/11 11:17:57;;;;;;;12.03;5.20;;;26.20;72.40;;;;;;5082581;28;20966;-75
2023/08/11 11:20:42;;;;;;;7.80;4.73;;;26.30;70.60;;;;;;5081929;28;20851;-76
2023/08/11 11:23:34;;;;;;;5.97;3.93;;;26.40;66.70;;;;;;5083935;28;20447;-76
2023/08/11 11:26:26;;;;;;;5.83;3.70;;;26.40;72.60;;;;;;5085447;28;20602;-76
2023/08/11 11:29:14;;;;;;;7.30;3.80;;;26.50;72.70;;;;;;5081864;28;20447;-76
2023/08/11 11:32:06;;;;;;;6.90;3.73;;;26.60;62.70;;;;;;5082437;28;20468;-76
2023/08/11 11:34:51;;;;;;;16.93;4.77;;;26.60;66.30;;;;;;5079774;28;20581;-76
2023/08/11 11:37:40;;;;;;;5.20;3.70;;;26.70;60.70;;;;;;5087157;28;20479;-76
2023/08/11 11:40:32;;;;;;;5.27;3.53;;;26.80;52.80;;;;;;5082742;28;20452;-76
2023/08/11 11:43:18;;;;;;;5.83;3.37;;;26.80;48.50;;;;;;5073456;28;21007;-77
2023/08/11 11:46:04;;;;;;;4.97;3.10;;;26.90;44.90;;;;;;5078910;28;20630;-76
2023/08/11 11:48:51;;;;;;;6.70;3.40;;;26.90;47.80;;;;;;5079304;28;20452;-75
2023/08/11 11:51:37;;;;;;;5.97;3.20;;;27.10;48.40;;;;;;5073156;28;20478;-75
2023/08/11 11:54:22;;;;;;;5.83;3.10;;;27.20;43.20;;;;;;5075020;28;20539;-75
2023/08/11 11:57:09;;;;;;;5.80;4.03;;;27.20;53.40;;;;;;5076552;28;20557;-76
2023/08/11 11:59:57;;;;;;;4.07;3.13;;;27.20;42.80;;;;;;5077128;28;20971;-76
2023/08/11 12:02:43;;;;;;;4.27;3.40;;;27.20;46.70;;;;;;5077092;28;20441;-75
2023/08/11 12:05:29;;;;;;;5.30;3.20;;;27.40;44.80;;;;;;5076677;28;20419;-75
2023/08/11 12:08:19;;;;;;;4.33;2.30;;;27.40;41.60;;;;;;5078756;28;21518;-75
2023/08/11 12:11:05;;;;;;;5.70;3.20;;;27.40;37.40;;;;;;5077025;28;20579;-76
2023/08/11 12:13:53;;;;;;;8.53;3.20;;;27.50;39.60;;;;;;5077420;28;20479;-76
2023/08/11 12:16:39;;;;;;;4.93;3.03;;;27.60;39.40;;;;;;5080006;28;20986;-77
2023/08/11 12:19:24;;;;;;;6.70;3.00;;;27.70;36.10;;;;;;5079990;28;20448;-76
2023/08/11 12:22:10;;;;;;;16.83;2.90;;;27.80;41.40;;;;;;5079101;28;20463;-76
2023/08/11 12:24:55;;;;;;;9.00;2.90;;;27.90;38.60;;;;;;5080331;28;20524;-76
2023/08/11 12:27:53;;;;;;;5.80;2.53;;;27.90;39.90;;;;;;5076828;28;20654;-76
2023/08/11 12:30:43;;;;;;;5.43;3.00;;;28.00;38.10;;;;;;5080818;28;20617;-77
2023/08/11 12:33:38;;;;;;;4.17;2.43;;;28.20;38.80;;;;;;5084961;28;20579;-76
2023/08/11 12:36:24;;;;;;;3.70;2.50;;;28.20;35.50;;;;;;5079175;28;20453;-76
2023/08/11 12:39:12;;;;;;;4.43;3.17;;;28.30;36.60;;;;;;5076293;28;21187;-77
2023/08/11 12:42:04;;;;;;;5.00;2.70;;;28.30;33.80;;;;;;5082615;28;20508;-77
2023/08/11 12:44:51;;;;;;;4.43;2.70;;;28.30;36.40;;;;;;5075813;28;20447;-77
2023/08/11 12:47:38;;;;;;;3.50;2.60;;;28.40;34.80;;;;;;5072002;28;20736;-77
2023/08/11 12:50:28;;;;;;;7.50;3.13;;;28.50;33.30;;;;;;5076368;28;20929;-77
2023/08/11 12:53:14;;;;;;;6.27;2.70;;;28.60;33.50;;;;;;5077806;28;20444;-77
2023/08/11 12:56:03;;;;;;;6.63;3.40;;;28.50;32.40;;;;;;5082585;28;21216;-76
2023/08/11 12:58:49;;;;;;;8.73;3.80;;;28.40;29.00;;;;;;5084460;28;20434;-76
2023/08/11 13:01:41;;;;;;;5.60;3.50;;;28.40;29.70;;;;;;5080292;28;20463;-78
2023/08/11 13:04:29;;;;;;;5.47;3.40;;;28.50;30.80;;;;;;5079973;28;20506;-77
2023/08/11 13:07:26;;;;;;;4.43;2.97;;;28.60;32.50;;;;;;5078301;28;20491;-77
2023/08/11 13:10:12;;;;;;;6.57;3.30;;;28.60;30.70;;;;;;5083845;28;20457;-77
2023/08/11 13:13:08;;;;;;;4.90;2.97;;;28.80;29.90;;;;;;5077755;28;20802;-76
2023/08/11 13:15:57;;;;;;;4.30;2.70;;;28.70;29.10;;;;;;5074979;28;20816;-77
2023/08/11 13:18:43;;;;;;;5.10;3.40;;;28.70;31.00;;;;;;5074515;28;20448;-76
2023/08/11 13:21:34;;;;;;;5.70;2.83;;;28.80;34.50;;;;;;5082358;28;20481;-77
2023/08/11 13:24:23;;;;;;;6.00;4.20;;;29.00;28.30;;;;;;5078433;28;20647;-75
2023/08/11 13:27:15;;;;;;;5.80;2.80;;;29.20;29.10;;;;;;5080887;28;20473;-76
2023/08/11 13:30:02;;;;;;;4.53;2.77;;;29.40;28.80;;;;;;5082296;28;21001;-77
2023/08/11 13:32:51;;;;;;;21.13;4.07;;;29.60;29.00;;;;;;5087911;28;20448;-77
2023/08/11 13:35:37;;;;;;;5.70;2.60;;;29.80;27.70;;;;;;5085041;28;20690;-76
2023/08/11 13:38:27;;;;;;;4.97;3.17;;;29.80;25.30;;;;;;5077844;28;20442;-77
2023/08/11 13:41:16;;;;;;;3.77;2.67;;;29.90;28.20;;;;;;5075689;28;21067;-75
2023/08/11 13:44:08;;;;;;;4.53;3.00;;;30.00;24.30;;;;;;5079837;28;20457;-75
2023/08/11 13:46:58;;;;;;;4.63;2.13;;;30.10;25.10;;;;;;5083424;28;20607;-77
2023/08/11 13:49:46;;;;;;;5.83;2.67;;;30.10;25.70;;;;;;5080143;28;20533;-77
2023/08/11 13:52:34;;;;;;;6.53;2.33;;;30.20;22.80;;;;;;5079348;28;20973;-75
2023/08/11 13:55:35;;;;;;;3.87;2.00;;;30.20;23.80;;;;;;5079477;28;20448;-77
2023/08/11 13:58:31;;;;;;;3.63;2.40;;;30.30;24.50;;;;;;5084727;28;20490;-77
2023/08/11 14:01:17;;;;;;;3.60;2.10;;;30.30;23.60;;;;;;5078173;28;20462;-77
2023/08/11 14:04:08;;;;;;;3.53;2.27;;;30.30;24.10;;;;;;5078783;28;20450;-77
2023/08/11 14:06:55;;;;;;;4.50;2.70;;;30.30;22.70;;;;;;5085524;28;20471;-77
2023/08/11 14:09:41;;;;;;;7.27;3.50;;;30.20;22.30;;;;;;5079407;28;20644;-77
2023/08/11 14:12:28;;;;;;;4.43;2.40;;;30.30;23.80;;;;;;5076285;28;20550;-76
2023/08/11 14:15:13;;;;;;;6.63;2.00;;;30.40;22.40;;;;;;5079841;28;20518;-77
2023/08/11 14:17:59;;;;;;;5.00;2.27;;;30.40;22.40;;;;;;5085080;28;20456;-77
2023/08/11 14:20:44;;;;;;;5.33;2.70;;;30.50;22.50;;;;;;5076203;28;21081;-77
2023/08/11 14:23:30;;;;;;;3.83;2.23;;;30.50;21.60;;;;;;5082330;28;20441;-77
2023/08/11 14:26:15;;;;;;;5.50;2.23;;;30.40;22.40;;;;;;5080203;28;20529;-77
2023/08/11 14:29:05;;;;;;;4.90;2.33;;;30.20;21.60;;;;;;5078718;28;20561;-77